sensor_id;sensor_type;location;lat;lon;timestamp;temperature;humidity
34873;DHT22;21084;51.098;14.506;2022-08-11T00:01:04;13.00;99.90
34873;DHT22;21084;51.098;14.506;2022-08-11T00:03:10;13.00;99.90
34873;DHT22;21084;51.098;14.506;2022-08-11T00:05:15;13.00;99.90
34873;DHT22;21084;51.098;14.506;2022-08-11T00:07:18;13.00;99.90
34873;DHT22;21084;51.098;14.506;2022-08-11T00:09:30;13.00;99.90
34873;DHT22;21084;51.098;14.506;2022-08-11T00:11:46;12.90;99.90
34873;DHT22;21084;51.098;14.506;2022-08-11T00:13:51;12.90;99.90
34873;DHT22;21084;51.098;14.506;2022-08-11T00:15:54;12.80;99.90
34873;DHT22;21084;51.098;14.506;2022-08-11T00:17:58;12.80;99.90
34873;DHT22;21084;51.098;14.506;2022-08-11T00:20:08;12.80;99.90
34873;DHT22;21084;51.098;14.506;2022-08-11T00:22:20;12.80;99.90
34873;DHT22;21084;51.098;14.506;2022-08-11T00:24:23;12.80;99.90
34873;DHT22;21084;51.098;14.506;2022-08-11T00:26:27;12.70;99.90
34873;DHT22;21084;51.098;14.506;2022-08-11T00:28:34;12.70;99.90
34873;DHT22;21084;51.098;14.506;2022-08-11T00:30:38;12.70;99.90
34873;DHT22;21084;51.098;14.506;2022-08-11T00:32:43;12.70;99.90
34873;DHT22;21084;51.098;14.506;2022-08-11T00:34:47;12.60;99.90
34873;DHT22;21084;51.098;14.506;2022-08-11T00:36:54;12.60;99.90
34873;DHT22;21084;51.098;14.506;2022-08-11T00:39:04;12.60;99.90
34873;DHT22;21084;51.098;14.506;2022-08-11T00:41:17;12.50;99.90
34873;DHT22;21084;51.098;14.506;2022-08-11T00:43:32;12.40;99.90
34873;DHT22;21084;51.098;14.506;2022-08-11T00:48:14;12.40;99.90
34873;DHT22;21084;51.098;14.506;2022-08-11T00:50:28;12.40;99.90
34873;DHT22;21084;51.098;14.506;2022-08-11T00:52:54;12.30;99.90
34873;DHT22;21084;51.098;14.506;2022-08-11T00:58:20;12.20;99.90
34873;DHT22;21084;51.098;14.506;2022-08-11T01:00:54;12.20;99.90
34873;DHT22;21084;51.098;14.506;2022-08-11T01:03:17;12.20;99.90
34873;DHT22;21084;51.098;14.506;2022-08-11T01:05:59;12.20;99.90
34873;DHT22;21084;51.098;14.506;2022-08-11T01:08:45;12.10;99.90
34873;DHT22;21084;51.098;14.506;2022-08-11T01:11:09;12.10;99.90
34873;DHT22;21084;51.098;14.506;2022-08-11T01:13:42;12.10;99.90
34873;DHT22;21084;51.098;14.506;2022-08-11T01:16:19;12.10;99.90
34873;DHT22;21084;51.098;14.506;2022-08-11T01:18:52;12.10;99.90
34873;DHT22;21084;51.098;14.506;2022-08-11T01:21:19;12.10;99.90
34873;DHT22;21084;51.098;14.506;2022-08-11T01:29:02;12.10;99.90
34873;DHT22;21084;51.098;14.506;2022-08-11T01:31:43;12.10;99.90
34873;DHT22;21084;51.098;14.506;2022-08-11T01:39:53;11.90;99.90
34873;DHT22;21084;51.098;14.506;2022-08-11T01:47:25;12.00;99.90
34873;DHT22;21084;51.098;14.506;2022-08-11T01:49:35;12.00;99.90
34873;DHT22;21084;51.098;14.506;2022-08-11T01:52:08;11.90;99.90
34873;DHT22;21084;51.098;14.506;2022-08-11T01:54:20;11.90;99.90
34873;DHT22;21084;51.098;14.506;2022-08-11T01:56:48;11.90;99.90
34873;DHT22;21084;51.098;14.506;2022-08-11T01:59:02;11.90;99.90
34873;DHT22;21084;51.098;14.506;2022-08-11T02:01:26;11.80;99.90
34873;DHT22;21084;51.098;14.506;2022-08-11T02:03:38;11.80;99.90
34873;DHT22;21084;51.098;14.506;2022-08-11T02:05:55;11.70;99.90
34873;DHT22;21084;51.098;14.506;2022-08-11T02:08:07;11.70;99.90
34873;DHT22;21084;51.098;14.506;2022-08-11T02:10:19;11.70;99.90
34873;DHT22;21084;51.098;14.506;2022-08-11T02:12:50;11.60;99.90
34873;DHT22;21084;51.098;14.506;2022-08-11T02:15:06;11.60;99.90
34873;DHT22;21084;51.098;14.506;2022-08-11T02:17:16;11.50;99.90
34873;DHT22;21084;51.098;14.506;2022-08-11T02:19:25;11.50;99.90
34873;DHT22;21084;51.098;14.506;2022-08-11T02:21:45;11.50;99.90
34873;DHT22;21084;51.098;14.506;2022-08-11T02:23:52;11.50;99.90
34873;DHT22;21084;51.098;14.506;2022-08-11T02:26:13;11.40;99.90
34873;DHT22;21084;51.098;14.506;2022-08-11T02:28:38;11.40;99.90
34873;DHT22;21084;51.098;14.506;2022-08-11T02:30:57;11.30;99.90
34873;DHT22;21084;51.098;14.506;2022-08-11T02:33:12;11.30;99.90
34873;DHT22;21084;51.098;14.506;2022-08-11T02:35:21;11.30;99.90
34873;DHT22;21084;51.098;14.506;2022-08-11T02:37:35;11.20;99.90
34873;DHT22;21084;51.098;14.506;2022-08-11T02:42:15;11.20;99.90
34873;DHT22;21084;51.098;14.506;2022-08-11T02:44:50;11.20;99.90
34873;DHT22;21084;51.098;14.506;2022-08-11T02:47:08;11.20;99.90
34873;DHT22;21084;51.098;14.506;2022-08-11T02:49:18;11.10;99.90
34873;DHT22;21084;51.098;14.506;2022-08-11T02:51:36;11.10;99.90
34873;DHT22;21084;51.098;14.506;2022-08-11T02:53:48;11.10;99.90
34873;DHT22;21084;51.098;14.506;2022-08-11T02:56:05;11.10;99.90
34873;DHT22;21084;51.098;14.506;2022-08-11T02:58:13;11.10;99.90
34873;DHT22;21084;51.098;14.506;2022-08-11T03:00:25;11.10;99.90
34873;DHT22;21084;51.098;14.506;2022-08-11T03:02:38;11.00;99.90
34873;DHT22;21084;51.098;14.506;2022-08-11T03:04:54;11.00;99.90
34873;DHT22;21084;51.098;14.506;2022-08-11T03:07:06;11.00;99.90
34873;DHT22;21084;51.098;14.506;2022-08-11T03:09:42;10.90;99.90
34873;DHT22;21084;51.098;14.506;2022-08-11T03:11:54;11.00;99.90
34873;DHT22;21084;51.098;14.506;2022-08-11T03:14:12;10.90;99.90
34873;DHT22;21084;51.098;14.506;2022-08-11T03:16:24;10.90;99.90
34873;DHT22;21084;51.098;14.506;2022-08-11T03:18:36;10.90;99.90
34873;DHT22;21084;51.098;14.506;2022-08-11T03:20:47;10.90;99.90
34873;DHT22;21084;51.098;14.506;2022-08-11T03:23:02;10.80;99.90
34873;DHT22;21084;51.098;14.506;2022-08-11T03:25:33;10.80;99.90
34873;DHT22;21084;51.098;14.506;2022-08-11T03:27:49;10.80;99.90
34873;DHT22;21084;51.098;14.506;2022-08-11T03:30:05;10.80;99.90
34873;DHT22;21084;51.098;14.506;2022-08-11T03:32:23;10.80;99.90
34873;DHT22;21084;51.098;14.506;2022-08-11T03:34:30;10.80;99.90
34873;DHT22;21084;51.098;14.506;2022-08-11T03:37:06;10.80;99.90
34873;DHT22;21084;51.098;14.506;2022-08-11T03:39:24;10.80;99.90
34873;DHT22;21084;51.098;14.506;2022-08-11T03:41:34;10.80;99.90
34873;DHT22;21084;51.098;14.506;2022-08-11T03:44:05;10.80;99.90
34873;DHT22;21084;51.098;14.506;2022-08-11T03:46:15;10.80;99.90
34873;DHT22;21084;51.098;14.506;2022-08-11T03:48:36;10.80;99.90
34873;DHT22;21084;51.098;14.506;2022-08-11T03:50:59;10.80;99.90
34873;DHT22;21084;51.098;14.506;2022-08-11T03:53:12;10.70;99.90
34873;DHT22;21084;51.098;14.506;2022-08-11T03:55:32;10.80;99.90
34873;DHT22;21084;51.098;14.506;2022-08-11T04:00:29;10.80;99.90
34873;DHT22;21084;51.098;14.506;2022-08-11T04:05:31;10.80;99.90
34873;DHT22;21084;51.098;14.506;2022-08-11T04:08:08;10.80;99.90
34873;DHT22;21084;51.098;14.506;2022-08-11T04:18:35;10.90;99.90
34873;DHT22;21084;51.098;14.506;2022-08-11T04:21:07;11.00;99.90
34873;DHT22;21084;51.098;14.506;2022-08-11T04:23:29;10.90;99.90
34873;DHT22;21084;51.098;14.506;2022-08-11T04:28:41;11.00;99.90
34873;DHT22;21084;51.098;14.506;2022-08-11T04:31:02;11.10;99.90
34873;DHT22;21084;51.098;14.506;2022-08-11T04:33:34;11.10;99.90
34873;DHT22;21084;51.098;14.506;2022-08-11T04:35:56;11.10;99.90
34873;DHT22;21084;51.098;14.506;2022-08-11T04:38:31;11.20;99.90
34873;DHT22;21084;51.098;14.506;2022-08-11T04:40:53;11.30;99.90
34873;DHT22;21084;51.098;14.506;2022-08-11T04:48:24;11.50;99.90
34873;DHT22;21084;51.098;14.506;2022-08-11T04:50:40;11.60;99.90
34873;DHT22;21084;51.098;14.506;2022-08-11T04:53:28;11.60;99.90
34873;DHT22;21084;51.098;14.506;2022-08-11T04:55:55;11.70;99.90
34873;DHT22;21084;51.098;14.506;2022-08-11T04:58:10;11.80;99.90
34873;DHT22;21084;51.098;14.506;2022-08-11T05:00:17;11.80;99.90
34873;DHT22;21084;51.098;14.506;2022-08-11T05:02:49;12.00;99.90
34873;DHT22;21084;51.098;14.506;2022-08-11T05:05:14;12.00;99.90
34873;DHT22;21084;51.098;14.506;2022-08-11T05:07:54;12.10;99.90
34873;DHT22;21084;51.098;14.506;2022-08-11T05:10:11;12.20;99.90
34873;DHT22;21084;51.098;14.506;2022-08-11T05:12:27;12.40;99.90
34873;DHT22;21084;51.098;14.506;2022-08-11T05:14:33;12.50;99.90
34873;DHT22;21084;51.098;14.506;2022-08-11T05:16:43;12.50;99.90
34873;DHT22;21084;51.098;14.506;2022-08-11T05:18:51;12.60;99.90
34873;DHT22;21084;51.098;14.506;2022-08-11T05:20:56;12.70;99.90
34873;DHT22;21084;51.098;14.506;2022-08-11T05:23:04;12.80;99.90
34873;DHT22;21084;51.098;14.506;2022-08-11T05:25:14;13.00;99.90
34873;DHT22;21084;51.098;14.506;2022-08-11T05:27:44;13.10;99.90
34873;DHT22;21084;51.098;14.506;2022-08-11T05:29:56;13.20;99.90
34873;DHT22;21084;51.098;14.506;2022-08-11T05:32:03;13.30;99.90
34873;DHT22;21084;51.098;14.506;2022-08-11T05:34:09;13.50;99.90
34873;DHT22;21084;51.098;14.506;2022-08-11T05:36:19;13.60;99.90
34873;DHT22;21084;51.098;14.506;2022-08-11T05:38:28;13.80;99.90
34873;DHT22;21084;51.098;14.506;2022-08-11T05:40:34;14.00;99.90
34873;DHT22;21084;51.098;14.506;2022-08-11T05:42:42;14.30;99.90
34873;DHT22;21084;51.098;14.506;2022-08-11T05:44:47;14.50;99.90
34873;DHT22;21084;51.098;14.506;2022-08-11T05:46:52;14.90;99.90
34873;DHT22;21084;51.098;14.506;2022-08-11T05:48:56;15.20;99.90
34873;DHT22;21084;51.098;14.506;2022-08-11T05:51:00;15.50;99.90
34873;DHT22;21084;51.098;14.506;2022-08-11T05:53:13;15.90;99.90
34873;DHT22;21084;51.098;14.506;2022-08-11T05:55:18;16.20;99.90
34873;DHT22;21084;51.098;14.506;2022-08-11T05:57:28;16.40;99.90
34873;DHT22;21084;51.098;14.506;2022-08-11T05:59:58;16.80;99.90
34873;DHT22;21084;51.098;14.506;2022-08-11T06:02:03;17.10;99.90
34873;DHT22;21084;51.098;14.506;2022-08-11T06:04:15;17.30;99.90
34873;DHT22;21084;51.098;14.506;2022-08-11T06:06:19;17.60;99.90
34873;DHT22;21084;51.098;14.506;2022-08-11T06:08:27;17.90;99.90
34873;DHT22;21084;51.098;14.506;2022-08-11T06:10:33;18.10;99.90
34873;DHT22;21084;51.098;14.506;2022-08-11T06:12:39;18.40;99.90
34873;DHT22;21084;51.098;14.506;2022-08-11T06:14:45;18.70;99.90
34873;DHT22;21084;51.098;14.506;2022-08-11T06:16:50;19.00;99.90
34873;DHT22;21084;51.098;14.506;2022-08-11T06:18:55;18.90;99.90
34873;DHT22;21084;51.098;14.506;2022-08-11T06:21:00;19.30;99.90
34873;DHT22;21084;51.098;14.506;2022-08-11T06:23:05;19.30;99.90
34873;DHT22;21084;51.098;14.506;2022-08-11T06:25:09;19.60;99.90
34873;DHT22;21084;51.098;14.506;2022-08-11T06:27:19;19.80;99.90
34873;DHT22;21084;51.098;14.506;2022-08-11T06:29:26;20.30;99.90
34873;DHT22;21084;51.098;14.506;2022-08-11T06:31:51;20.60;99.90
34873;DHT22;21084;51.098;14.506;2022-08-11T06:34:08;21.00;99.90
34873;DHT22;21084;51.098;14.506;2022-08-11T06:36:15;21.50;99.90
34873;DHT22;21084;51.098;14.506;2022-08-11T06:38:36;21.90;99.90
34873;DHT22;21084;51.098;14.506;2022-08-11T06:40:50;22.20;99.90
34873;DHT22;21084;51.098;14.506;2022-08-11T06:42:59;22.30;99.90
34873;DHT22;21084;51.098;14.506;2022-08-11T06:45:13;22.40;99.90
34873;DHT22;21084;51.098;14.506;2022-08-11T06:47:18;22.60;99.90
34873;DHT22;21084;51.098;14.506;2022-08-11T06:49:32;23.10;99.90
34873;DHT22;21084;51.098;14.506;2022-08-11T06:51:36;23.30;99.90
34873;DHT22;21084;51.098;14.506;2022-08-11T06:53:45;23.70;99.90
34873;DHT22;21084;51.098;14.506;2022-08-11T06:56:07;24.00;99.90
34873;DHT22;21084;51.098;14.506;2022-08-11T06:58:13;23.70;99.90
34873;DHT22;21084;51.098;14.506;2022-08-11T07:00:21;24.10;99.90
34873;DHT22;21084;51.098;14.506;2022-08-11T07:02:29;24.50;99.90
34873;DHT22;21084;51.098;14.506;2022-08-11T07:04:40;24.70;99.90
34873;DHT22;21084;51.098;14.506;2022-08-11T07:07:10;25.10;99.90
34873;DHT22;21084;51.098;14.506;2022-08-11T07:09:49;25.60;99.30
34873;DHT22;21084;51.098;14.506;2022-08-11T07:12:01;25.70;95.50
34873;DHT22;21084;51.098;14.506;2022-08-11T07:14:11;25.30;93.50
34873;DHT22;21084;51.098;14.506;2022-08-11T07:16:24;25.30;93.40
34873;DHT22;21084;51.098;14.506;2022-08-11T07:18:31;25.50;93.40
34873;DHT22;21084;51.098;14.506;2022-08-11T07:20:35;26.20;91.90
34873;DHT22;21084;51.098;14.506;2022-08-11T07:22:40;26.00;91.00
34873;DHT22;21084;51.098;14.506;2022-08-11T07:24:49;26.00;89.80
34873;DHT22;21084;51.098;14.506;2022-08-11T07:27:16;25.80;89.30
34873;DHT22;21084;51.098;14.506;2022-08-11T07:29:20;25.50;89.50
34873;DHT22;21084;51.098;14.506;2022-08-11T07:31:30;25.90;88.20
34873;DHT22;21084;51.098;14.506;2022-08-11T07:33:41;26.00;86.90
34873;DHT22;21084;51.098;14.506;2022-08-11T07:36:07;25.60;88.30
34873;DHT22;21084;51.098;14.506;2022-08-11T07:38:24;26.20;85.60
34873;DHT22;21084;51.098;14.506;2022-08-11T07:40:29;26.70;84.30
34873;DHT22;21084;51.098;14.506;2022-08-11T07:42:33;27.10;82.70
34873;DHT22;21084;51.098;14.506;2022-08-11T07:44:39;27.00;82.00
34873;DHT22;21084;51.098;14.506;2022-08-11T07:46:48;27.20;81.00
34873;DHT22;21084;51.098;14.506;2022-08-11T07:48:52;27.70;80.10
34873;DHT22;21084;51.098;14.506;2022-08-11T07:50:56;27.80;78.20
34873;DHT22;21084;51.098;14.506;2022-08-11T07:53:00;27.30;77.70
34873;DHT22;21084;51.098;14.506;2022-08-11T07:55:07;27.80;77.70
34873;DHT22;21084;51.098;14.506;2022-08-11T07:57:13;28.30;77.50
34873;DHT22;21084;51.098;14.506;2022-08-11T07:59:36;28.80;74.30
34873;DHT22;21084;51.098;14.506;2022-08-11T08:02:02;28.50;73.20
34873;DHT22;21084;51.098;14.506;2022-08-11T08:04:09;29.00;72.60
34873;DHT22;21084;51.098;14.506;2022-08-11T08:06:14;29.20;72.10
34873;DHT22;21084;51.098;14.506;2022-08-11T08:08:39;29.50;70.20
34873;DHT22;21084;51.098;14.506;2022-08-11T08:10:43;29.40;66.00
34873;DHT22;21084;51.098;14.506;2022-08-11T08:12:46;28.60;67.40
34873;DHT22;21084;51.098;14.506;2022-08-11T08:14:50;29.30;69.30
34873;DHT22;21084;51.098;14.506;2022-08-11T08:16:55;29.80;66.50
34873;DHT22;21084;51.098;14.506;2022-08-11T08:19:01;30.10;65.00
34873;DHT22;21084;51.098;14.506;2022-08-11T08:21:05;29.40;64.30
34873;DHT22;21084;51.098;14.506;2022-08-11T08:23:08;29.60;65.70
34873;DHT22;21084;51.098;14.506;2022-08-11T08:25:14;29.90;65.00
34873;DHT22;21084;51.098;14.506;2022-08-11T08:27:19;29.90;62.40
34873;DHT22;21084;51.098;14.506;2022-08-11T08:29:23;29.70;62.50
34873;DHT22;21084;51.098;14.506;2022-08-11T08:31:27;29.60;62.40
34873;DHT22;21084;51.098;14.506;2022-08-11T08:33:31;29.50;62.20
34873;DHT22;21084;51.098;14.506;2022-08-11T08:35:37;30.00;62.60
34873;DHT22;21084;51.098;14.506;2022-08-11T08:37:57;30.20;61.20
34873;DHT22;21084;51.098;14.506;2022-08-11T08:40:01;30.10;59.70
34873;DHT22;21084;51.098;14.506;2022-08-11T08:42:07;29.80;59.60
34873;DHT22;21084;51.098;14.506;2022-08-11T08:44:11;29.10;59.80
34873;DHT22;21084;51.098;14.506;2022-08-11T08:46:41;29.20;60.80
34873;DHT22;21084;51.098;14.506;2022-08-11T08:48:46;29.70;60.70
34873;DHT22;21084;51.098;14.506;2022-08-11T08:50:56;29.70;58.20
34873;DHT22;21084;51.098;14.506;2022-08-11T08:53:03;29.70;58.20
34873;DHT22;21084;51.098;14.506;2022-08-11T08:55:10;29.40;57.60
34873;DHT22;21084;51.098;14.506;2022-08-11T08:57:16;29.30;57.70
34873;DHT22;21084;51.098;14.506;2022-08-11T08:59:22;30.30;55.80
34873;DHT22;21084;51.098;14.506;2022-08-11T09:01:29;30.30;55.00
34873;DHT22;21084;51.098;14.506;2022-08-11T09:03:35;30.90;55.60
34873;DHT22;21084;51.098;14.506;2022-08-11T09:06:01;31.10;55.70
34873;DHT22;21084;51.098;14.506;2022-08-11T09:08:04;30.80;53.50
34873;DHT22;21084;51.098;14.506;2022-08-11T09:10:09;30.90;55.00
34873;DHT22;21084;51.098;14.506;2022-08-11T09:12:13;31.70;55.20
34873;DHT22;21084;51.098;14.506;2022-08-11T09:14:17;30.90;52.10
34873;DHT22;21084;51.098;14.506;2022-08-11T09:16:21;31.40;53.00
34873;DHT22;21084;51.098;14.506;2022-08-11T09:18:25;31.60;51.90
34873;DHT22;21084;51.098;14.506;2022-08-11T09:20:36;31.90;52.40
34873;DHT22;21084;51.098;14.506;2022-08-11T09:22:44;31.60;52.30
34873;DHT22;21084;51.098;14.506;2022-08-11T09:24:48;31.50;51.50
34873;DHT22;21084;51.098;14.506;2022-08-11T09:26:52;31.80;50.40
34873;DHT22;21084;51.098;14.506;2022-08-11T09:28:56;32.70;48.20
34873;DHT22;21084;51.098;14.506;2022-08-11T09:31:00;32.40;48.50
34873;DHT22;21084;51.098;14.506;2022-08-11T09:33:04;33.20;50.00
34873;DHT22;21084;51.098;14.506;2022-08-11T09:35:08;34.00;47.90
34873;DHT22;21084;51.098;14.506;2022-08-11T09:37:12;33.90;44.80
34873;DHT22;21084;51.098;14.506;2022-08-11T09:39:36;32.50;42.40
34873;DHT22;21084;51.098;14.506;2022-08-11T09:41:42;31.10;42.40
34873;DHT22;21084;51.098;14.506;2022-08-11T09:44:04;31.00;43.70
34873;DHT22;21084;51.098;14.506;2022-08-11T09:46:08;30.50;45.20
34873;DHT22;21084;51.098;14.506;2022-08-11T09:48:11;31.30;46.00
34873;DHT22;21084;51.098;14.506;2022-08-11T09:50:15;32.10;45.00
34873;DHT22;21084;51.098;14.506;2022-08-11T09:52:18;32.50;45.70
34873;DHT22;21084;51.098;14.506;2022-08-11T09:54:24;32.90;43.40
34873;DHT22;21084;51.098;14.506;2022-08-11T09:56:30;32.70;44.50
34873;DHT22;21084;51.098;14.506;2022-08-11T09:58:34;33.20;42.40
34873;DHT22;21084;51.098;14.506;2022-08-11T10:00:49;33.30;42.80
34873;DHT22;21084;51.098;14.506;2022-08-11T10:02:55;33.20;42.10
34873;DHT22;21084;51.098;14.506;2022-08-11T10:04:59;32.60;41.80
34873;DHT22;21084;51.098;14.506;2022-08-11T10:07:03;32.50;41.80
34873;DHT22;21084;51.098;14.506;2022-08-11T10:09:07;32.50;40.90
34873;DHT22;21084;51.098;14.506;2022-08-11T10:11:12;32.40;42.00
34873;DHT22;21084;51.098;14.506;2022-08-11T10:13:20;32.20;41.20
34873;DHT22;21084;51.098;14.506;2022-08-11T10:15:44;32.50;41.50
34873;DHT22;21084;51.098;14.506;2022-08-11T10:18:10;32.80;40.90
34873;DHT22;21084;51.098;14.506;2022-08-11T10:20:15;33.30;40.80
34873;DHT22;21084;51.098;14.506;2022-08-11T10:22:18;33.50;39.60
34873;DHT22;21084;51.098;14.506;2022-08-11T10:24:22;33.50;39.50
34873;DHT22;21084;51.098;14.506;2022-08-11T10:26:41;34.00;38.20
34873;DHT22;21084;51.098;14.506;2022-08-11T10:29:02;33.60;38.90
34873;DHT22;21084;51.098;14.506;2022-08-11T10:31:15;33.50;38.10
34873;DHT22;21084;51.098;14.506;2022-08-11T10:33:21;33.30;40.20
34873;DHT22;21084;51.098;14.506;2022-08-11T10:35:41;33.90;40.20
34873;DHT22;21084;51.098;14.506;2022-08-11T10:37:46;34.30;39.80
34873;DHT22;21084;51.098;14.506;2022-08-11T10:40:13;34.60;39.00
34873;DHT22;21084;51.098;14.506;2022-08-11T10:42:17;33.80;39.50
34873;DHT22;21084;51.098;14.506;2022-08-11T10:44:46;34.70;39.30
34873;DHT22;21084;51.098;14.506;2022-08-11T10:46:52;34.70;38.10
34873;DHT22;21084;51.098;14.506;2022-08-11T10:48:56;34.70;38.70
34873;DHT22;21084;51.098;14.506;2022-08-11T10:51:00;34.70;38.30
34873;DHT22;21084;51.098;14.506;2022-08-11T10:53:03;33.80;39.20
34873;DHT22;21084;51.098;14.506;2022-08-11T10:55:09;34.50;39.30
34873;DHT22;21084;51.098;14.506;2022-08-11T10:57:13;33.50;39.70
34873;DHT22;21084;51.098;14.506;2022-08-11T10:59:17;33.50;39.10
34873;DHT22;21084;51.098;14.506;2022-08-11T11:01:25;32.80;39.90
34873;DHT22;21084;51.098;14.506;2022-08-11T11:03:30;33.70;42.10
34873;DHT22;21084;51.098;14.506;2022-08-11T11:05:34;33.30;39.60
34873;DHT22;21084;51.098;14.506;2022-08-11T11:08:06;33.10;40.40
34873;DHT22;21084;51.098;14.506;2022-08-11T11:10:11;34.30;40.70
34873;DHT22;21084;51.098;14.506;2022-08-11T11:12:20;34.30;39.20
34873;DHT22;21084;51.098;14.506;2022-08-11T11:14:28;34.00;39.90
34873;DHT22;21084;51.098;14.506;2022-08-11T11:16:35;33.90;39.40
34873;DHT22;21084;51.098;14.506;2022-08-11T11:18:38;33.50;39.40
34873;DHT22;21084;51.098;14.506;2022-08-11T11:20:44;34.00;39.90
34873;DHT22;21084;51.098;14.506;2022-08-11T11:22:52;33.50;39.10
34873;DHT22;21084;51.098;14.506;2022-08-11T11:25:03;34.00;39.90
34873;DHT22;21084;51.098;14.506;2022-08-11T11:27:17;34.00;39.30
34873;DHT22;21084;51.098;14.506;2022-08-11T11:32:16;33.30;40.00
34873;DHT22;21084;51.098;14.506;2022-08-11T11:34:35;34.50;40.40
34873;DHT22;21084;51.098;14.506;2022-08-11T11:36:59;34.90;38.60
34873;DHT22;21084;51.098;14.506;2022-08-11T11:39:03;34.60;38.80
34873;DHT22;21084;51.098;14.506;2022-08-11T11:41:07;34.60;38.10
34873;DHT22;21084;51.098;14.506;2022-08-11T11:43:10;34.60;38.30
34873;DHT22;21084;51.098;14.506;2022-08-11T11:45:16;34.40;38.60
34873;DHT22;21084;51.098;14.506;2022-08-11T11:47:29;34.70;38.30
34873;DHT22;21084;51.098;14.506;2022-08-11T11:49:33;34.90;38.80
34873;DHT22;21084;51.098;14.506;2022-08-11T11:51:37;35.20;39.10
34873;DHT22;21084;51.098;14.506;2022-08-11T11:53:42;35.30;38.90
34873;DHT22;21084;51.098;14.506;2022-08-11T11:55:45;35.70;39.50
34873;DHT22;21084;51.098;14.506;2022-08-11T11:57:49;35.60;38.50
34873;DHT22;21084;51.098;14.506;2022-08-11T12:00:03;34.40;39.20
34873;DHT22;21084;51.098;14.506;2022-08-11T12:02:07;34.40;39.70
34873;DHT22;21084;51.098;14.506;2022-08-11T12:04:18;34.70;39.50
34873;DHT22;21084;51.098;14.506;2022-08-11T12:06:23;35.40;38.00
34873;DHT22;21084;51.098;14.506;2022-08-11T12:08:27;35.70;38.60
34873;DHT22;21084;51.098;14.506;2022-08-11T12:10:31;34.30;37.50
34873;DHT22;21084;51.098;14.506;2022-08-11T12:12:34;33.20;38.20
34873;DHT22;21084;51.098;14.506;2022-08-11T12:14:38;33.40;40.00
34873;DHT22;21084;51.098;14.506;2022-08-11T12:16:43;34.10;39.00
34873;DHT22;21084;51.098;14.506;2022-08-11T12:18:52;34.30;38.40
34873;DHT22;21084;51.098;14.506;2022-08-11T12:20:59;34.10;40.20
34873;DHT22;21084;51.098;14.506;2022-08-11T12:23:03;34.00;38.40
34873;DHT22;21084;51.098;14.506;2022-08-11T12:25:07;33.30;38.60
34873;DHT22;21084;51.098;14.506;2022-08-11T12:27:11;33.40;39.00
34873;DHT22;21084;51.098;14.506;2022-08-11T12:29:20;32.80;39.60
34873;DHT22;21084;51.098;14.506;2022-08-11T12:31:24;34.40;39.00
34873;DHT22;21084;51.098;14.506;2022-08-11T12:33:27;34.30;38.60
34873;DHT22;21084;51.098;14.506;2022-08-11T12:35:30;34.30;38.20
34873;DHT22;21084;51.098;14.506;2022-08-11T12:37:39;33.40;38.70
34873;DHT22;21084;51.098;14.506;2022-08-11T12:39:46;34.40;38.70
34873;DHT22;21084;51.098;14.506;2022-08-11T12:42:13;34.30;39.20
34873;DHT22;21084;51.098;14.506;2022-08-11T12:44:19;34.80;36.80
34873;DHT22;21084;51.098;14.506;2022-08-11T12:46:30;34.50;37.00
34873;DHT22;21084;51.098;14.506;2022-08-11T12:48:36;34.50;37.40
34873;DHT22;21084;51.098;14.506;2022-08-11T12:51:06;34.70;37.90
34873;DHT22;21084;51.098;14.506;2022-08-11T12:53:13;34.80;38.00
34873;DHT22;21084;51.098;14.506;2022-08-11T12:55:19;34.60;37.60
34873;DHT22;21084;51.098;14.506;2022-08-11T12:57:30;34.60;37.10
34873;DHT22;21084;51.098;14.506;2022-08-11T12:59:40;34.70;37.30
34873;DHT22;21084;51.098;14.506;2022-08-11T13:01:43;35.20;37.20
34873;DHT22;21084;51.098;14.506;2022-08-11T13:03:46;34.80;37.50
34873;DHT22;21084;51.098;14.506;2022-08-11T13:06:00;34.40;37.10
34873;DHT22;21084;51.098;14.506;2022-08-11T13:08:04;35.00;36.30
34873;DHT22;21084;51.098;14.506;2022-08-11T13:10:12;35.30;37.50
34873;DHT22;21084;51.098;14.506;2022-08-11T13:12:19;36.50;37.00
34873;DHT22;21084;51.098;14.506;2022-08-11T13:14:24;36.50;36.70
34873;DHT22;21084;51.098;14.506;2022-08-11T13:16:30;36.20;36.40
34873;DHT22;21084;51.098;14.506;2022-08-11T13:18:34;36.50;36.10
34873;DHT22;21084;51.098;14.506;2022-08-11T13:20:37;35.30;36.40
34873;DHT22;21084;51.098;14.506;2022-08-11T13:22:41;34.90;36.90
34873;DHT22;21084;51.098;14.506;2022-08-11T13:24:45;35.50;37.70
34873;DHT22;21084;51.098;14.506;2022-08-11T13:26:52;35.80;36.50
34873;DHT22;21084;51.098;14.506;2022-08-11T13:28:55;36.70;36.80
34873;DHT22;21084;51.098;14.506;2022-08-11T13:30:58;37.20;35.60
34873;DHT22;21084;51.098;14.506;2022-08-11T13:33:02;37.00;35.90
34873;DHT22;21084;51.098;14.506;2022-08-11T13:35:06;37.00;36.10
34873;DHT22;21084;51.098;14.506;2022-08-11T13:37:11;37.00;35.50
34873;DHT22;21084;51.098;14.506;2022-08-11T13:39:15;36.30;35.50
34873;DHT22;21084;51.098;14.506;2022-08-11T13:41:19;35.40;35.90
34873;DHT22;21084;51.098;14.506;2022-08-11T13:43:25;35.20;36.50
34873;DHT22;21084;51.098;14.506;2022-08-11T13:45:28;34.20;36.60
34873;DHT22;21084;51.098;14.506;2022-08-11T13:47:32;34.50;37.20
34873;DHT22;21084;51.098;14.506;2022-08-11T13:49:41;34.60;37.10
34873;DHT22;21084;51.098;14.506;2022-08-11T13:51:46;34.60;36.80
34873;DHT22;21084;51.098;14.506;2022-08-11T13:53:49;34.30;36.60
34873;DHT22;21084;51.098;14.506;2022-08-11T13:55:59;33.90;37.70
34873;DHT22;21084;51.098;14.506;2022-08-11T13:58:03;34.40;37.20
34873;DHT22;21084;51.098;14.506;2022-08-11T14:00:24;35.10;36.80
34873;DHT22;21084;51.098;14.506;2022-08-11T14:02:30;35.50;35.70
34873;DHT22;21084;51.098;14.506;2022-08-11T14:04:37;35.30;35.40
34873;DHT22;21084;51.098;14.506;2022-08-11T14:06:45;35.60;36.00
34873;DHT22;21084;51.098;14.506;2022-08-11T14:08:51;36.20;36.40
34873;DHT22;21084;51.098;14.506;2022-08-11T14:11:00;36.30;35.00
34873;DHT22;21084;51.098;14.506;2022-08-11T14:13:07;36.50;35.30
34873;DHT22;21084;51.098;14.506;2022-08-11T14:15:15;36.80;35.00
34873;DHT22;21084;51.098;14.506;2022-08-11T14:17:21;36.30;34.80
34873;DHT22;21084;51.098;14.506;2022-08-11T14:19:46;35.00;36.70
34873;DHT22;21084;51.098;14.506;2022-08-11T14:21:54;35.20;36.30
34873;DHT22;21084;51.098;14.506;2022-08-11T14:23:57;35.80;37.00
34873;DHT22;21084;51.098;14.506;2022-08-11T14:26:03;35.90;35.40